首页
METAR-TAF:

METAR-TAF

机场 :

尼姆, 法国

纬度: 43-45N, 经度: 004-25E, 海拔: 94米

当前天气观测

该预报发布于28分钟前的01:30 UTC
风速4节,风向东北
温度 9°C
湿度 71%
气压 1026 hPa
能见度10公里或以上
1500米以下无云,无积雨云

METAR: LFTW 070130Z AUTO 04004KT CAVOK 09/04 Q1026

时间: 03:58 (01:58 UTC)

预报

该预报发布于11小时和58分钟前的14:00 UTC
预报有效从06日的 15点(UTC)到 07日的 15点(UTC)
风速12节,风向南转南东
能见度10公里或以上
1500米以下无云,无积雨云
成为
从 06日的 18点(UTC)到 06日的 21点(UTC)
风速4节,风向东转东北
成为
从 07日的 10点(UTC)到 07日的 12点(UTC)
风速10节,风向

TAF: LFTW 061400Z 0615/0715 16012KT CAVOK BECMG 0618/0621 06004KT BECMG 0710/0712 17010KT

超过4000个机场的气象观测和天气预报(METAR&TAF报告)。

可查询的气象台以黄色和红色小点在地图上表示。

将鼠标移到小点上方,可查看气象台名称。

然后点击查看天气观测和预报。

如需切换地图:点击带黑十字的绿色按钮放大地图;点击带横线的绿色按钮缩小地图;或者点击绿色箭头查看邻近地区的地图。


METAR-TAF: